Time;durP1;ratioP1;P1;durP2;ratioP2;P2;SDS_P1;SDS_P2;PMS_P1;PMS_P2;Temp;Humidity;BMP_temperature;BMP_pressure;BME280_temperature;BME280_humidity;BME280_pressure;Samples;Min_cycle;Max_cycle;Signal;HPM_P1;HPM_P2
2021/05/14 00:01:23;;;;;;;1.58;0.57;;;13.90;70.80;;;;;;2569200;53;20981;-66
2021/05/14 00:03:49;;;;;;;0.98;0.30;;;13.90;70.80;;;;;;2338955;54;21115;-66
2021/05/14 00:06:17;;;;;;;1.40;0.50;;;14.00;70.90;;;;;;2578475;53;20973;-68
2021/05/14 00:08:44;;;;;;;1.85;0.60;;;13.90;70.80;;;;;;2331960;54;20953;-65
2021/05/14 00:11:10;;;;;;;1.10;0.40;;;13.90;70.80;;;;;;2325424;54;21736;-65
2021/05/14 00:13:36;;;;;;;1.48;0.43;;;14.00;70.90;;;;;;2324053;54;20965;-66
2021/05/14 00:16:04;;;;;;;2.17;0.52;;;14.00;70.90;;;;;;2343655;54;20917;-66
2021/05/14 00:18:30;;;;;;;1.27;0.50;;;14.00;70.90;;;;;;2327782;54;20968;-66
2021/05/14 00:21:03;;;;;;;1.80;0.47;;;14.00;70.80;;;;;;2582574;53;20929;-65
2021/05/14 00:23:29;;;;;;;3.45;0.50;;;14.00;70.70;;;;;;2343801;55;21065;-66
2021/05/14 00:25:55;;;;;;;1.83;0.50;;;14.00;70.70;;;;;;2343706;54;20925;-66
2021/05/14 00:28:21;;;;;;;0.93;0.40;;;14.00;70.70;;;;;;2343565;55;20921;-68
2021/05/14 00:30:48;;;;;;;1.08;0.43;;;14.00;70.70;;;;;;2337922;54;20992;-65
2021/05/14 00:33:15;;;;;;;1.00;0.40;;;14.00;71.50;;;;;;2331619;54;20925;-66
2021/05/14 00:35:41;;;;;;;1.50;0.43;;;14.00;70.80;;;;;;2344298;54;22384;-67
2021/05/14 00:38:08;;;;;;;1.20;0.43;;;14.00;70.80;;;;;;2344125;54;20956;-65
2021/05/14 00:40:34;;;;;;;2.58;0.70;;;14.00;70.80;;;;;;2332268;54;21044;-65
2021/05/14 00:43:00;;;;;;;0.98;0.40;;;14.00;70.80;;;;;;2319953;54;20970;-67
2021/05/14 00:45:27;;;;;;;1.95;0.43;;;14.00;70.90;;;;;;2328740;54;20925;-66
2021/05/14 00:47:53;;;;;;;0.85;0.30;;;14.00;71.00;;;;;;2344447;54;21837;-66
2021/05/14 00:50:20;;;;;;;1.17;0.40;;;14.00;71.00;;;;;;2591263;53;20989;-65
2021/05/14 00:52:46;;;;;;;1.37;0.40;;;14.00;71.00;;;;;;2572521;53;20952;-67
2021/05/14 00:55:13;;;;;;;1.65;0.60;;;14.00;71.10;;;;;;2329330;54;20860;-65
2021/05/14 00:57:40;;;;;;;1.05;0.50;;;14.00;71.10;;;;;;2342072;54;20913;-65
2021/05/14 01:00:07;;;;;;;1.15;0.47;;;14.00;71.10;;;;;;2344263;54;20921;-65
2021/05/14 01:02:33;;;;;;;1.98;0.50;;;14.10;71.30;;;;;;2344317;54;21505;-66
2021/05/14 01:04:59;;;;;;;3.70;0.50;;;14.10;71.40;;;;;;2346842;54;21692;-66
2021/05/14 01:07:26;;;;;;;0.80;0.35;;;14.10;71.40;;;;;;2322035;54;21720;-67
2021/05/14 01:09:52;;;;;;;2.12;0.40;;;14.10;71.30;;;;;;2330494;54;20973;-67
2021/05/14 01:12:19;;;;;;;2.25;0.50;;;14.20;71.40;;;;;;2324693;54;20965;-66
2021/05/14 01:14:46;;;;;;;2.45;0.68;;;14.20;71.30;;;;;;2345072;54;21014;-66
2021/05/14 01:17:13;;;;;;;1.17;0.70;;;14.20;71.20;;;;;;2323126;54;20999;-65
2021/05/14 01:19:39;;;;;;;1.98;0.50;;;14.20;71.20;;;;;;2344426;54;20930;-66
2021/05/14 01:22:08;;;;;;;1.10;0.40;;;14.20;71.10;;;;;;2343941;54;20936;-67
2021/05/14 01:24:35;;;;;;;0.70;0.32;;;14.20;70.80;;;;;;2343457;54;20917;-65
2021/05/14 01:27:01;;;;;;;3.37;0.50;;;14.30;71.00;;;;;;2563274;53;20961;-67
2021/05/14 01:29:27;;;;;;;1.67;0.60;;;14.20;70.90;;;;;;2330071;54;20933;-65
2021/05/14 01:31:54;;;;;;;1.25;0.47;;;14.20;70.80;;;;;;2338817;54;21008;-66
2021/05/14 01:34:21;;;;;;;1.60;0.57;;;14.20;70.80;;;;;;2324504;54;21751;-66
2021/05/14 01:36:47;;;;;;;1.62;0.60;;;14.20;70.70;;;;;;2327586;54;21364;-66
2021/05/14 01:39:17;;;;;;;1.23;0.55;;;14.20;70.60;;;;;;2589555;52;20959;-67
2021/05/14 01:41:43;;;;;;;1.20;0.52;;;14.20;70.50;;;;;;2579766;53;21727;-65
2021/05/14 01:44:09;;;;;;;1.92;0.80;;;14.30;70.60;;;;;;2406415;52;21551;-66
2021/05/14 01:46:35;;;;;;;1.42;0.60;;;14.20;70.50;;;;;;2319119;54;21431;-66
2021/05/14 01:49:02;;;;;;;1.52;0.60;;;14.20;70.40;;;;;;2590522;52;21475;-66
2021/05/14 01:51:28;;;;;;;1.42;0.57;;;14.20;70.30;;;;;;2343855;54;20914;-66
2021/05/14 01:53:54;;;;;;;1.73;0.65;;;14.20;70.20;;;;;;2346865;54;21021;-65
2021/05/14 01:56:20;;;;;;;1.55;0.70;;;14.10;70.00;;;;;;2337560;54;20923;-66
2021/05/14 01:58:49;;;;;;;1.40;0.50;;;14.10;70.00;;;;;;2332340;53;21660;-66
2021/05/14 02:01:15;;;;;;;1.33;0.55;;;14.00;69.70;;;;;;2334707;54;21073;-66
2021/05/14 02:03:41;;;;;;;1.52;0.50;;;14.00;69.60;;;;;;2576678;52;21467;-67
2021/05/14 02:06:08;;;;;;;1.12;0.52;;;14.00;69.50;;;;;;2326341;54;20937;-66
2021/05/14 02:08:34;;;;;;;1.30;0.52;;;13.90;69.30;;;;;;2343758;54;20930;-66
2021/05/14 02:11:03;;;;;;;2.10;0.60;;;13.90;69.20;;;;;;2344019;54;21747;-65
2021/05/14 02:13:29;;;;;;;0.98;0.40;;;13.80;69.10;;;;;;2343873;54;21994;-67
2021/05/14 02:15:55;;;;;;;1.58;0.60;;;13.70;69.00;;;;;;2339851;54;20923;-67
2021/05/14 02:18:23;;;;;;;1.35;0.57;;;13.70;69.00;;;;;;2426026;52;21039;-65
2021/05/14 02:20:49;;;;;;;1.37;0.60;;;13.60;68.90;;;;;;2340164;54;20984;-66
2021/05/14 02:23:16;;;;;;;1.25;0.40;;;13.60;68.90;;;;;;2345477;54;21082;-65
2021/05/14 02:25:42;;;;;;;0.98;0.45;;;13.50;68.80;;;;;;2570875;53;21035;-65
2021/05/14 02:28:09;;;;;;;0.93;0.40;;;13.40;68.80;;;;;;2569210;52;20931;-66
2021/05/14 02:30:35;;;;;;;2.25;0.50;;;13.40;68.90;;;;;;2343235;54;20963;-66
2021/05/14 02:33:02;;;;;;;1.02;0.40;;;13.40;68.90;;;;;;2338165;54;21002;-66
2021/05/14 02:35:28;;;;;;;1.10;0.40;;;13.30;68.90;;;;;;2343510;54;20935;-66
2021/05/14 02:37:54;;;;;;;0.93;0.40;;;13.20;68.90;;;;;;2343868;54;20996;-66
2021/05/14 02:40:20;;;;;;;1.05;0.40;;;13.10;68.90;;;;;;2345288;54;20944;-66
2021/05/14 02:42:47;;;;;;;1.17;0.50;;;13.10;69.00;;;;;;2330607;53;21799;-65
2021/05/14 02:45:15;;;;;;;0.82;0.45;;;13.00;68.90;;;;;;2327629;53;20981;-66
2021/05/14 02:47:41;;;;;;;1.85;0.40;;;13.00;69.10;;;;;;2347008;54;21656;-65
2021/05/14 02:50:08;;;;;;;1.52;0.50;;;12.90;69.20;;;;;;2322657;53;21551;-65
2021/05/14 02:52:35;;;;;;;1.12;0.40;;;12.90;69.20;;;;;;2567388;53;21032;-66
2021/05/14 02:55:01;;;;;;;1.70;0.62;;;12.80;69.20;;;;;;2327211;53;20959;-65
2021/05/14 02:57:27;;;;;;;3.85;0.50;;;12.80;69.40;;;;;;2340094;54;20995;-67
2021/05/14 02:59:54;;;;;;;1.73;0.55;;;12.80;69.40;;;;;;2344199;54;20978;-66
2021/05/14 03:02:20;;;;;;;1.30;0.50;;;12.80;69.50;;;;;;2343860;54;20950;-65
2021/05/14 03:04:46;;;;;;;1.33;0.60;;;12.70;69.40;;;;;;2344421;54;20980;-66
2021/05/14 03:07:13;;;;;;;1.52;0.40;;;12.70;69.50;;;;;;2559003;53;20943;-66
2021/05/14 03:09:39;;;;;;;1.37;0.40;;;12.70;69.50;;;;;;2339464;53;21391;-65
2021/05/14 03:12:06;;;;;;;1.30;0.47;;;12.60;69.40;;;;;;2544466;52;20946;-65
2021/05/14 03:14:33;;;;;;;2.28;0.50;;;12.60;69.50;;;;;;2345410;54;20997;-65
2021/05/14 03:16:59;;;;;;;0.93;0.40;;;12.60;69.60;;;;;;2340559;54;21101;-66
2021/05/14 03:19:26;;;;;;;1.27;0.30;;;12.50;69.60;;;;;;2343074;54;21751;-65
2021/05/14 03:21:53;;;;;;;1.00;0.37;;;12.60;69.80;;;;;;2573678;53;20964;-66
2021/05/14 03:24:19;;;;;;;1.30;0.52;;;12.50;69.80;;;;;;2343230;54;20938;-66
2021/05/14 03:26:48;;;;;;;0.50;0.28;;;12.50;70.00;;;;;;2343604;54;21001;-66
2021/05/14 03:29:14;;;;;;;1.83;0.70;;;12.40;70.00;;;;;;2368295;53;20990;-67
2021/05/14 03:31:41;;;;;;;1.65;0.68;;;12.40;70.20;;;;;;2343503;54;20998;-65
2021/05/14 03:34:07;;;;;;;1.95;0.70;;;12.40;70.30;;;;;;2343984;54;20942;-65
2021/05/14 03:36:34;;;;;;;2.67;0.70;;;12.40;70.30;;;;;;2343816;54;21002;-66
2021/05/14 03:39:00;;;;;;;1.08;0.40;;;12.40;70.40;;;;;;2339200;55;20922;-66
2021/05/14 03:41:33;;;;;;;1.37;0.50;;;12.40;70.50;;;;;;2343611;54;20913;-66
2021/05/14 03:44:09;;;;;;;1.37;0.45;;;12.40;70.60;;;;;;2339506;54;20966;-65
2021/05/14 03:46:36;;;;;;;1.05;0.50;;;12.40;70.70;;;;;;2347928;54;21006;-65
2021/05/14 03:49:03;;;;;;;1.95;0.60;;;12.30;71.20;;;;;;2590783;52;21708;-66
2021/05/14 03:51:30;;;;;;;1.25;0.45;;;12.40;70.70;;;;;;2343477;54;21014;-66
2021/05/14 03:53:57;;;;;;;1.02;0.45;;;12.30;70.70;;;;;;2344068;54;21077;-65
2021/05/14 03:56:23;;;;;;;2.03;0.60;;;12.30;70.70;;;;;;2343823;54;21005;-65
2021/05/14 03:58:50;;;;;;;1.20;0.45;;;12.30;70.80;;;;;;2343638;54;21434;-66
2021/05/14 04:01:17;;;;;;;1.25;0.40;;;12.30;70.80;;;;;;2343810;54;21243;-65
2021/05/14 04:03:43;;;;;;;1.35;0.40;;;12.30;71.00;;;;;;2376809;53;21383;-65
2021/05/14 04:06:10;;;;;;;2.08;0.70;;;12.40;71.20;;;;;;2586090;52;21501;-65
2021/05/14 04:08:37;;;;;;;1.42;0.52;;;12.40;71.40;;;;;;2317816;53;20963;-65
2021/05/14 04:15:09;;;;;;;1.80;0.40;;;12.30;71.50;;;;;;2341377;54;21009;-65
2021/05/14 04:17:38;;;;;;;0.85;0.40;;;12.40;71.50;;;;;;2322843;55;20990;-65
2021/05/14 04:20:06;;;;;;;0.98;0.50;;;12.50;71.80;;;;;;2338668;55;21029;-66
2021/05/14 04:22:35;;;;;;;1.30;0.60;;;12.50;71.80;;;;;;2346200;53;21072;-66
2021/05/14 04:25:05;;;;;;;1.65;0.60;;;12.50;71.90;;;;;;2337234;54;20966;-66
2021/05/14 04:27:32;;;;;;;1.77;0.82;;;12.50;71.70;;;;;;2343812;54;20991;-66
2021/05/14 04:29:58;;;;;;;1.70;0.70;;;12.50;71.80;;;;;;2343503;54;20981;-66
2021/05/14 04:32:24;;;;;;;1.25;0.60;;;12.50;71.70;;;;;;2344385;54;20941;-66
2021/05/14 04:34:51;;;;;;;1.83;0.62;;;12.60;71.60;;;;;;2343549;54;21669;-65
2021/05/14 04:37:17;;;;;;;0.95;0.40;;;12.50;71.50;;;;;;2344083;54;20938;-66
2021/05/14 04:39:43;;;;;;;4.20;0.70;;;12.60;71.50;;;;;;2344300;54;20984;-65
2021/05/14 04:42:10;;;;;;;0.93;0.50;;;12.50;71.20;;;;;;2339909;54;21482;-66
2021/05/14 04:44:36;;;;;;;0.98;0.47;;;12.60;71.30;;;;;;2344073;54;20970;-65
2021/05/14 04:47:02;;;;;;;1.60;0.60;;;12.50;71.10;;;;;;2343899;54;21001;-67
2021/05/14 04:49:29;;;;;;;2.12;0.82;;;12.50;71.10;;;;;;2343672;54;21002;-66
2021/05/14 04:51:55;;;;;;;1.65;0.70;;;12.50;71.00;;;;;;2590560;52;21819;-65
2021/05/14 04:54:22;;;;;;;1.62;0.70;;;12.50;71.00;;;;;;2339338;54;21012;-66
2021/05/14 04:56:48;;;;;;;2.65;0.80;;;12.50;71.20;;;;;;2344139;54;21074;-66
2021/05/14 04:59:15;;;;;;;2.37;0.80;;;12.50;71.30;;;;;;2343634;54;20998;-65
2021/05/14 05:01:42;;;;;;;3.03;1.08;;;12.50;71.50;;;;;;2343998;54;20938;-66
2021/05/14 05:04:10;;;;;;;2.10;0.85;;;12.50;71.70;;;;;;2316753;54;21540;-66
2021/05/14 05:06:37;;;;;;;1.98;0.80;;;12.50;71.90;;;;;;2317710;54;21007;-65
2021/05/14 05:09:05;;;;;;;1.67;0.70;;;12.50;72.00;;;;;;2581614;52;20998;-65
2021/05/14 05:11:35;;;;;;;1.70;0.73;;;12.60;72.20;;;;;;2343976;54;20934;-66
2021/05/14 05:14:01;;;;;;;1.25;0.57;;;12.60;72.40;;;;;;2343964;54;20962;-66
2021/05/14 05:16:30;;;;;;;2.30;1.20;;;12.60;72.60;;;;;;2344050;54;20938;-65
2021/05/14 05:18:59;;;;;;;5.40;1.92;;;12.60;72.50;;;;;;2346318;54;20931;-66
2021/05/14 05:21:25;;;;;;;5.65;2.58;;;12.70;72.60;;;;;;2322908;53;21064;-65
2021/05/14 05:23:52;;;;;;;4.43;2.00;;;12.70;72.70;;;;;;2339496;54;21553;-65
2021/05/14 05:26:18;;;;;;;3.30;1.50;;;12.70;72.80;;;;;;2343749;54;20934;-66
2021/05/14 05:28:45;;;;;;;2.87;1.27;;;12.80;72.90;;;;;;2495046;52;20995;-65
2021/05/14 05:31:11;;;;;;;2.62;1.20;;;12.80;73.10;;;;;;2344052;54;20942;-66
2021/05/14 05:33:37;;;;;;;2.83;1.30;;;12.80;73.20;;;;;;2344635;54;20912;-66
2021/05/14 05:36:04;;;;;;;2.80;1.20;;;12.90;73.50;;;;;;2584925;52;21531;-66
2021/05/14 05:38:32;;;;;;;3.28;1.27;;;12.90;73.70;;;;;;2346762;54;21026;-67
2021/05/14 05:40:59;;;;;;;2.75;1.33;;;13.00;73.80;;;;;;2336557;54;20982;-65
2021/05/14 05:43:28;;;;;;;3.72;1.55;;;13.10;74.00;;;;;;2344152;54;20930;-66
2021/05/14 05:45:54;;;;;;;3.78;1.45;;;13.10;73.90;;;;;;2343866;54;20974;-66
2021/05/14 05:48:21;;;;;;;4.20;1.70;;;13.20;74.10;;;;;;2344154;54;20942;-66
2021/05/14 05:50:51;;;;;;;3.30;1.50;;;13.30;74.10;;;;;;2340535;54;21085;-65
2021/05/14 05:53:18;;;;;;;3.35;1.10;;;13.40;74.00;;;;;;2342703;54;21104;-65
2021/05/14 05:55:44;;;;;;;1.95;0.80;;;13.40;74.00;;;;;;2319793;54;20968;-66
2021/05/14 05:58:12;;;;;;;2.58;0.80;;;13.50;74.10;;;;;;2343337;54;20970;-66
2021/05/14 06:00:38;;;;;;;1.73;0.68;;;13.50;74.00;;;;;;2344365;54;21026;-66
2021/05/14 06:03:06;;;;;;;1.37;0.70;;;13.60;74.10;;;;;;2344627;54;21012;-65
2021/05/14 06:05:32;;;;;;;2.20;0.60;;;13.70;74.20;;;;;;2338996;53;21025;-65
2021/05/14 06:07:58;;;;;;;2.30;0.80;;;13.70;74.10;;;;;;2590297;52;21015;-66
2021/05/14 06:10:26;;;;;;;1.48;0.70;;;13.80;74.20;;;;;;2341538;54;21047;-67
2021/05/14 06:12:53;;;;;;;2.85;0.80;;;13.90;73.90;;;;;;2319393;53;20938;-66
2021/05/14 06:15:20;;;;;;;2.20;0.60;;;13.90;74.00;;;;;;2343611;54;21050;-67
2021/05/14 06:17:46;;;;;;;2.20;0.70;;;14.00;74.10;;;;;;2343893;54;20939;-67
2021/05/14 06:20:16;;;;;;;1.00;0.50;;;14.10;74.20;;;;;;2343745;54;20974;-65
2021/05/14 06:22:45;;;;;;;2.37;0.55;;;14.20;74.30;;;;;;2589956;52;20894;-65
2021/05/14 06:25:13;;;;;;;2.55;0.65;;;14.20;74.20;;;;;;2339635;54;21005;-67
2021/05/14 06:27:41;;;;;;;1.50;0.60;;;14.30;74.30;;;;;;2344520;54;20934;-67
2021/05/14 06:30:08;;;;;;;1.73;0.75;;;14.40;74.50;;;;;;2340258;54;20955;-68
2021/05/14 06:32:34;;;;;;;2.25;0.70;;;14.50;74.10;;;;;;2342975;54;20911;-66
2021/05/14 06:35:01;;;;;;;2.22;0.88;;;14.60;74.40;;;;;;2344537;54;20969;-66
2021/05/14 06:37:39;;;;;;;1.80;0.60;;;14.70;74.10;;;;;;2338418;54;20967;-67
2021/05/14 06:40:06;;;;;;;1.83;0.60;;;14.70;72.90;;;;;;2344464;54;20938;-67
2021/05/14 06:42:32;;;;;;;2.25;0.60;;;14.80;73.20;;;;;;2339858;54;20929;-67
2021/05/14 06:45:07;;;;;;;1.23;0.52;;;14.90;73.50;;;;;;2344176;54;20933;-66
2021/05/14 06:47:34;;;;;;;1.17;0.40;;;15.00;73.20;;;;;;2341312;54;21726;-66
2021/05/14 06:50:03;;;;;;;1.30;0.60;;;15.10;74.50;;;;;;2318595;54;21851;-68
2021/05/14 06:52:29;;;;;;;1.15;0.40;;;15.20;75.60;;;;;;2344200;54;20975;-67
2021/05/14 06:54:59;;;;;;;0.82;0.40;;;15.40;77.00;;;;;;2340880;54;20928;-68
2021/05/14 06:57:25;;;;;;;2.42;0.60;;;15.70;78.00;;;;;;2343871;53;21791;-67
2021/05/14 06:59:52;;;;;;;1.12;0.50;;;16.00;78.50;;;;;;2344104;54;20914;-68
2021/05/14 07:02:20;;;;;;;1.98;0.60;;;16.30;79.10;;;;;;2347186;53;20961;-68
2021/05/14 07:04:46;;;;;;;1.00;0.45;;;16.70;79.10;;;;;;2342203;54;20906;-67
2021/05/14 07:07:13;;;;;;;1.33;0.50;;;17.10;80.60;;;;;;2579916;53;20976;-67
2021/05/14 07:09:39;;;;;;;2.72;0.60;;;17.40;80.30;;;;;;2327157;53;20964;-67
2021/05/14 07:12:06;;;;;;;1.95;0.68;;;17.80;79.10;;;;;;2345028;54;21061;-66
2021/05/14 07:14:32;;;;;;;1.08;0.50;;;18.00;78.20;;;;;;2336639;54;20912;-68
2021/05/14 07:16:59;;;;;;;1.62;0.68;;;18.20;77.60;;;;;;2343243;54;20935;-66
2021/05/14 07:19:27;;;;;;;1.65;0.75;;;18.40;77.30;;;;;;2342490;54;21798;-68
2021/05/14 07:21:53;;;;;;;2.05;0.82;;;18.60;77.80;;;;;;2339895;54;21008;-66
2021/05/14 07:24:20;;;;;;;2.42;0.65;;;18.80;78.30;;;;;;2344273;54;21467;-68
2021/05/14 07:26:46;;;;;;;2.12;0.60;;;19.00;78.30;;;;;;2340057;54;21013;-68
2021/05/14 07:29:14;;;;;;;1.15;0.50;;;19.30;77.30;;;;;;2343455;54;20926;-68
2021/05/14 07:31:40;;;;;;;1.58;0.62;;;19.60;75.90;;;;;;2338145;54;21539;-67
2021/05/14 07:34:07;;;;;;;4.28;0.70;;;19.80;74.20;;;;;;2343006;54;20986;-66
2021/05/14 07:36:34;;;;;;;1.25;0.50;;;19.80;71.30;;;;;;2342667;54;20990;-69
2021/05/14 07:39:02;;;;;;;1.45;0.50;;;19.90;70.70;;;;;;2343608;54;21042;-68
2021/05/14 07:41:28;;;;;;;2.30;0.47;;;19.90;71.40;;;;;;2344922;54;20996;-68
2021/05/14 07:43:54;;;;;;;1.75;0.62;;;19.90;70.70;;;;;;2337677;54;20918;-68
2021/05/14 07:46:20;;;;;;;1.30;0.60;;;19.90;71.10;;;;;;2343667;54;20930;-67
2021/05/14 07:48:47;;;;;;;2.65;0.60;;;20.00;71.20;;;;;;2343896;54;20902;-67
2021/05/14 07:51:14;;;;;;;2.37;0.45;;;20.10;71.60;;;;;;2343240;54;20918;-69
2021/05/14 07:53:40;;;;;;;1.73;0.60;;;20.20;71.30;;;;;;2339008;54;20940;-67
2021/05/14 07:56:08;;;;;;;2.42;0.50;;;20.30;71.20;;;;;;2325648;53;20957;-68
2021/05/14 07:58:34;;;;;;;1.20;0.40;;;20.30;71.10;;;;;;2339636;54;21237;-66
2021/05/14 08:01:00;;;;;;;1.60;0.47;;;20.30;70.30;;;;;;2343630;54;20930;-69
2021/05/14 08:03:27;;;;;;;1.77;0.40;;;20.30;69.80;;;;;;2344445;54;20926;-69
2021/05/14 08:05:53;;;;;;;1.12;0.40;;;20.20;69.70;;;;;;2330576;54;21077;-69
2021/05/14 08:08:21;;;;;;;1.92;0.50;;;20.20;70.10;;;;;;2317647;54;20928;-69
2021/05/14 08:10:47;;;;;;;2.05;0.50;;;20.20;70.50;;;;;;2315832;54;20952;-67
2021/05/14 08:13:20;;;;;;;2.90;0.80;;;20.20;70.50;;;;;;2340669;54;20917;-69
2021/05/14 08:15:47;;;;;;;2.08;0.80;;;20.30;70.50;;;;;;2344280;54;20949;-67
2021/05/14 08:18:14;;;;;;;1.87;0.47;;;20.30;70.20;;;;;;2344297;54;20956;-68
2021/05/14 08:20:44;;;;;;;2.20;0.70;;;20.30;69.70;;;;;;2344144;54;20985;-68
2021/05/14 08:23:10;;;;;;;1.80;0.60;;;20.30;68.90;;;;;;2344204;54;21811;-68
2021/05/14 08:25:39;;;;;;;2.65;0.80;;;20.30;68.70;;;;;;2590331;53;20905;-67
2021/05/14 08:28:06;;;;;;;1.48;0.40;;;20.20;66.80;;;;;;2447008;53;20977;-68
2021/05/14 08:30:34;;;;;;;1.77;0.50;;;20.10;66.80;;;;;;2336222;54;20913;-68
2021/05/14 08:33:00;;;;;;;2.70;0.55;;;20.10;66.90;;;;;;2333000;54;20957;-70
2021/05/14 08:35:27;;;;;;;3.47;0.70;;;20.10;66.40;;;;;;2344721;54;20977;-68
2021/05/14 08:37:53;;;;;;;2.47;0.60;;;20.00;66.40;;;;;;2557801;53;21047;-70
2021/05/14 08:40:22;;;;;;;3.22;0.70;;;20.00;66.00;;;;;;2390705;53;21437;-67
2021/05/14 08:42:49;;;;;;;2.12;0.50;;;20.00;66.10;;;;;;2336651;54;21448;-68
2021/05/14 08:45:15;;;;;;;2.05;0.50;;;19.90;66.50;;;;;;2344215;54;21024;-69
2021/05/14 08:47:41;;;;;;;2.25;0.40;;;19.90;66.60;;;;;;2342778;54;20922;-69
2021/05/14 08:50:10;;;;;;;0.80;0.30;;;19.80;66.70;;;;;;2329065;54;21109;-67
2021/05/14 08:52:40;;;;;;;1.60;0.50;;;19.80;67.10;;;;;;2514682;53;21771;-70
2021/05/14 08:55:08;;;;;;;2.60;0.60;;;19.90;67.20;;;;;;2343780;54;21698;-70
2021/05/14 08:57:34;;;;;;;2.03;0.60;;;19.90;67.70;;;;;;2336172;54;20897;-67
2021/05/14 09:00:00;;;;;;;2.20;0.73;;;19.90;68.30;;;;;;2333515;54;20929;-69
2021/05/14 09:02:27;;;;;;;1.85;0.40;;;19.90;67.50;;;;;;2324557;55;20977;-67
2021/05/14 09:04:53;;;;;;;4.00;0.85;;;20.00;67.90;;;;;;2344143;54;21001;-68
2021/05/14 09:07:19;;;;;;;1.73;0.52;;;20.00;67.50;;;;;;2344250;54;21661;-68
2021/05/14 09:10:07;;;;;;;2.37;0.50;;;20.10;68.40;;;;;;2344093;54;21460;-69
2021/05/14 09:12:39;;;;;;;1.40;0.47;;;20.30;66.60;;;;;;2344809;55;21048;-70
2021/05/14 09:18:40;;;;;;;2.28;0.52;;;20.50;69.00;;;;;;2344660;54;21001;-66
2021/05/14 09:21:06;;;;;;;1.50;0.52;;;20.80;65.70;;;;;;2344337;54;20908;-69
2021/05/14 09:23:34;;;;;;;1.30;0.40;;;20.90;68.90;;;;;;2489199;53;21065;-68
2021/05/14 09:26:07;;;;;;;1.70;0.35;;;20.90;67.70;;;;;;2344002;54;21068;-69
2021/05/14 09:28:38;;;;;;;2.10;0.30;;;20.90;66.30;;;;;;2591121;53;20909;-68
2021/05/14 09:31:21;;;;;;;3.20;0.62;;;20.90;66.50;;;;;;2344878;54;21633;-70
2021/05/14 09:33:51;;;;;;;0.77;0.37;;;20.90;67.30;;;;;;2338472;54;20997;-67
2021/05/14 09:36:29;;;;;;;4.03;0.60;;;20.90;67.60;;;;;;2567079;53;21385;-71
2021/05/14 09:38:58;;;;;;;1.60;0.50;;;20.90;65.20;;;;;;2344267;54;21469;-69
2021/05/14 09:41:45;;;;;;;1.30;0.43;;;20.90;65.60;;;;;;2325756;54;20933;-69
2021/05/14 09:44:14;;;;;;;1.40;0.50;;;20.90;63.40;;;;;;2330248;54;20956;-68
2021/05/14 09:46:46;;;;;;;1.33;0.60;;;20.90;65.40;;;;;;2339662;54;20941;-70
2021/05/14 09:49:17;;;;;;;1.08;0.47;;;20.90;64.40;;;;;;2340899;54;21017;-67
2021/05/14 09:51:57;;;;;;;1.70;0.47;;;20.90;65.00;;;;;;2329078;54;20949;-71
2021/05/14 09:54:40;;;;;;;1.95;0.43;;;20.90;63.70;;;;;;2343923;54;20949;-66
2021/05/14 09:57:41;;;;;;;2.17;0.50;;;20.90;65.30;;;;;;2328327;54;21008;-68
2021/05/14 10:00:12;;;;;;;1.65;0.40;;;21.00;63.10;;;;;;2332868;54;20910;-69
2021/05/14 10:02:40;;;;;;;2.05;0.70;;;21.00;66.50;;;;;;2339436;53;21000;-67
2021/05/14 10:05:14;;;;;;;1.77;0.40;;;21.00;66.10;;;;;;2344511;54;20958;-68
2021/05/14 10:07:42;;;;;;;1.52;0.43;;;21.10;65.40;;;;;;2377192;52;21484;-69
2021/05/14 10:10:08;;;;;;;2.00;0.50;;;21.10;66.10;;;;;;2589786;52;21806;-69
2021/05/14 10:12:35;;;;;;;5.20;0.50;;;21.20;65.70;;;;;;2348693;53;20938;-68
2021/05/14 10:15:03;;;;;;;3.00;0.50;;;21.20;65.50;;;;;;2590425;52;20918;-67
2021/05/14 10:17:29;;;;;;;2.47;0.50;;;21.20;64.60;;;;;;2344084;54;20895;-68
2021/05/14 10:19:57;;;;;;;1.60;0.40;;;21.20;64.00;;;;;;2343599;54;20970;-68
2021/05/14 10:22:28;;;;;;;1.92;0.60;;;21.20;64.20;;;;;;2344249;54;20955;-69
2021/05/14 10:24:58;;;;;;;1.33;0.52;;;21.20;63.30;;;;;;2343384;54;21053;-71
2021/05/14 10:27:26;;;;;;;1.17;0.50;;;21.20;64.90;;;;;;2343808;54;20974;-69
2021/05/14 10:29:59;;;;;;;2.28;0.68;;;21.20;64.50;;;;;;2329577;53;20972;-69
2021/05/14 10:39:17;;;;;;;2.45;0.60;;;21.20;64.00;;;;;;2580274;52;21082;-69
2021/05/14 10:42:20;;;;;;;2.53;1.00;;;21.30;61.70;;;;;;2344135;54;20890;-69
2021/05/14 10:44:55;;;;;;;5.50;1.20;;;21.30;58.70;;;;;;2344222;54;21427;-67
2021/05/14 10:47:43;;;;;;;2.33;0.80;;;21.20;61.00;;;;;;2339976;54;20960;-68
2021/05/14 10:50:31;;;;;;;2.70;1.00;;;21.10;59.50;;;;;;2347857;54;20943;-69
2021/05/14 10:53:58;;;;;;;2.17;0.50;;;21.00;58.90;;;;;;2346436;54;20955;-69
2021/05/14 10:56:24;;;;;;;2.72;0.70;;;21.00;59.00;;;;;;2340772;54;20915;-69
2021/05/14 10:59:06;;;;;;;2.47;0.70;;;20.90;61.60;;;;;;2346252;54;20927;-67
2021/05/14 11:01:42;;;;;;;1.55;0.50;;;20.80;60.00;;;;;;2337596;53;20995;-68
2021/05/14 11:04:52;;;;;;;4.12;0.62;;;20.70;58.50;;;;;;2339064;55;21084;-67
2021/05/14 11:07:39;;;;;;;1.10;0.45;;;20.50;56.30;;;;;;2319114;53;20972;-70
2021/05/14 11:11:10;;;;;;;2.17;0.65;;;20.30;56.10;;;;;;2343750;54;20987;-67
2021/05/14 11:13:47;;;;;;;1.20;0.40;;;20.00;55.50;;;;;;2338863;54;20954;-68
2021/05/14 11:16:42;;;;;;;1.12;0.40;;;19.80;57.60;;;;;;2346738;54;20915;-68
2021/05/14 11:19:33;;;;;;;2.10;0.40;;;19.60;55.70;;;;;;2363847;53;20923;-67
2021/05/14 11:23:04;;;;;;;1.33;0.40;;;19.30;56.40;;;;;;2590443;52;21014;-66
2021/05/14 11:25:32;;;;;;;2.17;0.55;;;19.10;57.40;;;;;;2342280;54;21543;-66
2021/05/14 11:27:59;;;;;;;1.45;0.30;;;18.80;58.30;;;;;;2585775;52;20941;-67
2021/05/14 11:30:27;;;;;;;1.52;0.60;;;18.70;58.70;;;;;;2343160;54;21557;-67
2021/05/14 11:32:54;;;;;;;1.75;0.60;;;18.50;58.80;;;;;;2342837;54;20907;-67
2021/05/14 11:35:22;;;;;;;2.70;1.05;;;18.40;59.50;;;;;;2343310;54;20935;-68
2021/05/14 11:37:54;;;;;;;1.62;0.73;;;18.30;60.20;;;;;;2579723;53;20912;-68
2021/05/14 11:40:43;;;;;;;2.17;0.60;;;18.20;60.80;;;;;;2320360;54;20912;-66
2021/05/14 11:43:13;;;;;;;1.80;0.45;;;18.20;60.00;;;;;;2338590;54;20922;-67
2021/05/14 11:45:44;;;;;;;0.88;0.40;;;18.10;61.10;;;;;;2345773;54;21525;-67
2021/05/14 11:48:20;;;;;;;2.17;0.60;;;18.10;61.60;;;;;;2559472;53;20983;-66
2021/05/14 11:50:51;;;;;;;1.08;0.40;;;18.10;62.40;;;;;;2338493;54;21464;-68
2021/05/14 11:53:18;;;;;;;0.65;0.20;;;18.20;64.00;;;;;;2344825;54;21080;-68
2021/05/14 11:55:45;;;;;;;0.60;0.30;;;18.30;65.10;;;;;;2318373;53;20952;-69
2021/05/14 11:58:12;;;;;;;2.58;0.50;;;18.40;65.60;;;;;;2329344;54;21461;-68
2021/05/14 12:00:41;;;;;;;1.12;0.32;;;18.60;66.30;;;;;;2341290;54;20966;-69
2021/05/14 12:03:17;;;;;;;0.60;0.20;;;18.80;66.70;;;;;;2589139;52;21724;-66
2021/05/14 12:05:46;;;;;;;1.48;0.50;;;19.00;66.40;;;;;;2322809;54;20958;-68
2021/05/14 12:08:19;;;;;;;1.23;0.62;;;19.20;67.70;;;;;;2340846;55;21028;-67
2021/05/14 12:10:55;;;;;;;2.25;0.60;;;19.40;67.70;;;;;;2327015;53;20904;-68
2021/05/14 12:13:26;;;;;;;1.08;0.37;;;19.70;67.10;;;;;;2381776;53;20946;-67
2021/05/14 12:16:26;;;;;;;1.35;0.35;;;19.90;67.60;;;;;;2336590;54;20990;-67
2021/05/14 12:18:56;;;;;;;0.93;0.20;;;20.10;65.40;;;;;;2345312;54;21025;-68
2021/05/14 12:21:41;;;;;;;1.80;0.50;;;20.30;66.60;;;;;;2338947;54;21073;-69
2021/05/14 12:24:15;;;;;;;0.65;0.28;;;20.50;63.70;;;;;;2344145;54;20943;-67
2021/05/14 12:26:42;;;;;;;0.80;0.20;;;20.70;65.60;;;;;;2344127;54;20942;-68
2021/05/14 12:29:25;;;;;;;0.35;0.20;;;20.80;66.90;;;;;;2577668;53;20948;-66
2021/05/14 12:31:57;;;;;;;0.88;0.20;;;21.00;64.60;;;;;;2311835;55;21000;-67
2021/05/14 12:34:23;;;;;;;0.57;0.20;;;21.20;66.70;;;;;;2331483;53;20969;-67
2021/05/14 12:36:54;;;;;;;0.60;0.13;;;21.40;67.10;;;;;;2323826;53;21460;-69
2021/05/14 12:39:20;;;;;;;1.37;0.20;;;21.50;67.80;;;;;;2356839;53;20985;-67
2021/05/14 12:41:57;;;;;;;0.98;0.32;;;21.60;67.80;;;;;;2311074;54;21443;-69
2021/05/14 12:44:35;;;;;;;2.55;0.52;;;21.80;66.40;;;;;;2562177;53;21009;-68
2021/05/14 12:47:35;;;;;;;2.22;0.40;;;22.00;67.00;;;;;;2479688;53;20957;-67
2021/05/14 12:50:05;;;;;;;0.80;0.20;;;22.20;63.00;;;;;;2316937;54;21119;-67
2021/05/14 12:52:38;;;;;;;0.65;0.28;;;22.40;66.50;;;;;;2316273;54;21005;-67
2021/05/14 12:55:14;;;;;;;0.82;0.30;;;22.50;64.10;;;;;;2317263;54;20968;-67
2021/05/14 12:57:56;;;;;;;0.68;0.30;;;22.50;61.30;;;;;;2317157;54;21386;-68
2021/05/14 13:00:24;;;;;;;0.80;0.30;;;22.60;60.60;;;;;;2316834;54;20973;-67
2021/05/14 13:02:55;;;;;;;0.50;0.25;;;22.60;62.90;;;;;;2322535;54;21088;-67
2021/05/14 13:05:43;;;;;;;0.88;0.32;;;22.60;61.60;;;;;;2321187;54;20951;-66
2021/05/14 13:08:16;;;;;;;5.82;1.10;;;22.70;59.50;;;;;;2343998;54;20982;-66
2021/05/14 13:10:59;;;;;;;3.03;0.93;;;22.70;62.50;;;;;;2462682;53;20996;-68
2021/05/14 13:13:26;;;;;;;2.10;0.50;;;22.80;61.40;;;;;;2343947;54;20981;-69
2021/05/14 13:15:54;;;;;;;3.83;1.10;;;22.90;63.20;;;;;;2343930;54;20938;-67